sensor_id;sensor_type;location;lat;lon;timestamp;temperature;humidity
38265;DHT22;24062;47.480;8.768;2024-02-16T00:01:25;15.70;49.20
38265;DHT22;24062;47.480;8.768;2024-02-16T00:03:52;15.70;49.30
38265;DHT22;24062;47.480;8.768;2024-02-16T00:06:18;15.70;49.30
38265;DHT22;24062;47.480;8.768;2024-02-16T00:08:46;15.70;49.30
38265;DHT22;24062;47.480;8.768;2024-02-16T00:11:12;15.70;49.30
38265;DHT22;24062;47.480;8.768;2024-02-16T00:13:39;15.70;49.30
38265;DHT22;24062;47.480;8.768;2024-02-16T00:16:06;15.70;49.30
38265;DHT22;24062;47.480;8.768;2024-02-16T00:18:33;15.70;49.30
38265;DHT22;24062;47.480;8.768;2024-02-16T00:21:00;15.60;49.20
38265;DHT22;24062;47.480;8.768;2024-02-16T00:23:27;15.70;49.30
38265;DHT22;24062;47.480;8.768;2024-02-16T00:25:56;15.60;49.30
38265;DHT22;24062;47.480;8.768;2024-02-16T00:28:22;15.60;49.30
38265;DHT22;24062;47.480;8.768;2024-02-16T00:30:49;15.60;49.30
38265;DHT22;24062;47.480;8.768;2024-02-16T00:33:16;15.60;49.30
38265;DHT22;24062;47.480;8.768;2024-02-16T00:35:44;15.60;49.30
38265;DHT22;24062;47.480;8.768;2024-02-16T00:38:13;15.60;49.30
38265;DHT22;24062;47.480;8.768;2024-02-16T00:40:40;15.60;49.30
38265;DHT22;24062;47.480;8.768;2024-02-16T00:43:10;15.60;49.30
38265;DHT22;24062;47.480;8.768;2024-02-16T00:45:38;15.60;49.30
38265;DHT22;24062;47.480;8.768;2024-02-16T00:48:04;15.60;49.30
38265;DHT22;24062;47.480;8.768;2024-02-16T00:50:32;15.60;49.40
38265;DHT22;24062;47.480;8.768;2024-02-16T00:52:59;15.60;49.40
38265;DHT22;24062;47.480;8.768;2024-02-16T00:55:26;15.60;49.40
38265;DHT22;24062;47.480;8.768;2024-02-16T00:57:52;15.60;49.40
38265;DHT22;24062;47.480;8.768;2024-02-16T01:00:21;15.60;49.40
38265;DHT22;24062;47.480;8.768;2024-02-16T01:02:49;15.60;49.40
38265;DHT22;24062;47.480;8.768;2024-02-16T01:05:16;15.50;49.40
38265;DHT22;24062;47.480;8.768;2024-02-16T01:07:43;15.50;49.40
38265;DHT22;24062;47.480;8.768;2024-02-16T01:10:11;15.50;49.40
38265;DHT22;24062;47.480;8.768;2024-02-16T01:12:38;15.50;49.40
38265;DHT22;24062;47.480;8.768;2024-02-16T01:15:06;15.50;49.40
38265;DHT22;24062;47.480;8.768;2024-02-16T01:17:35;15.50;49.40
38265;DHT22;24062;47.480;8.768;2024-02-16T01:20:02;15.60;49.60
38265;DHT22;24062;47.480;8.768;2024-02-16T01:22:30;15.50;49.50
38265;DHT22;24062;47.480;8.768;2024-02-16T01:24:56;15.50;49.40
38265;DHT22;24062;47.480;8.768;2024-02-16T01:27:23;15.50;49.50
38265;DHT22;24062;47.480;8.768;2024-02-16T01:29:50;15.50;49.40
38265;DHT22;24062;47.480;8.768;2024-02-16T01:32:17;15.50;49.50
38265;DHT22;24062;47.480;8.768;2024-02-16T01:34:45;15.50;49.50
38265;DHT22;24062;47.480;8.768;2024-02-16T01:37:15;15.50;49.50
38265;DHT22;24062;47.480;8.768;2024-02-16T01:39:42;15.40;49.40
38265;DHT22;24062;47.480;8.768;2024-02-16T01:42:09;15.40;49.50
38265;DHT22;24062;47.480;8.768;2024-02-16T01:44:36;15.40;49.50
38265;DHT22;24062;47.480;8.768;2024-02-16T01:47:03;15.40;49.50
38265;DHT22;24062;47.480;8.768;2024-02-16T01:49:30;15.40;49.50
38265;DHT22;24062;47.480;8.768;2024-02-16T01:51:59;15.40;49.50
38265;DHT22;24062;47.480;8.768;2024-02-16T01:54:26;15.40;49.50
38265;DHT22;24062;47.480;8.768;2024-02-16T01:56:53;15.40;49.50
38265;DHT22;24062;47.480;8.768;2024-02-16T01:59:21;15.40;49.50
38265;DHT22;24062;47.480;8.768;2024-02-16T02:01:48;15.40;49.60
38265;DHT22;24062;47.480;8.768;2024-02-16T02:04:15;15.40;49.50
38265;DHT22;24062;47.480;8.768;2024-02-16T02:06:42;15.40;49.60
38265;DHT22;24062;47.480;8.768;2024-02-16T02:09:10;15.40;49.60
38265;DHT22;24062;47.480;8.768;2024-02-16T02:11:37;15.30;49.50
38265;DHT22;24062;47.480;8.768;2024-02-16T02:14:04;15.40;49.60
38265;DHT22;24062;47.480;8.768;2024-02-16T02:16:31;15.30;49.60
38265;DHT22;24062;47.480;8.768;2024-02-16T02:18:58;15.30;49.60
38265;DHT22;24062;47.480;8.768;2024-02-16T02:21:25;15.50;49.80
38265;DHT22;24062;47.480;8.768;2024-02-16T02:23:53;15.30;49.60
38265;DHT22;24062;47.480;8.768;2024-02-16T02:26:20;15.30;49.60
38265;DHT22;24062;47.480;8.768;2024-02-16T02:28:47;15.30;49.60
38265;DHT22;24062;47.480;8.768;2024-02-16T02:31:15;15.30;49.60
38265;DHT22;24062;47.480;8.768;2024-02-16T02:33:42;15.30;49.60
38265;DHT22;24062;47.480;8.768;2024-02-16T02:36:09;15.30;49.60
38265;DHT22;24062;47.480;8.768;2024-02-16T02:38:36;15.30;49.70
38265;DHT22;24062;47.480;8.768;2024-02-16T02:41:05;15.30;49.60
38265;DHT22;24062;47.480;8.768;2024-02-16T02:43:31;15.30;49.60
38265;DHT22;24062;47.480;8.768;2024-02-16T02:45:58;15.30;49.60
38265;DHT22;24062;47.480;8.768;2024-02-16T02:48:25;15.30;49.60
38265;DHT22;24062;47.480;8.768;2024-02-16T02:50:52;15.30;49.60
38265;DHT22;24062;47.480;8.768;2024-02-16T02:53:19;15.20;49.60
38265;DHT22;24062;47.480;8.768;2024-02-16T02:55:47;15.30;49.70
38265;DHT22;24062;47.480;8.768;2024-02-16T02:58:15;15.20;49.60
38265;DHT22;24062;47.480;8.768;2024-02-16T03:00:44;15.20;49.60
38265;DHT22;24062;47.480;8.768;2024-02-16T03:03:11;15.20;49.70
38265;DHT22;24062;47.480;8.768;2024-02-16T03:05:41;15.20;49.60
38265;DHT22;24062;47.480;8.768;2024-02-16T03:08:08;15.20;49.60
38265;DHT22;24062;47.480;8.768;2024-02-16T03:10:36;15.20;49.60
38265;DHT22;24062;47.480;8.768;2024-02-16T03:13:03;15.20;49.70
38265;DHT22;24062;47.480;8.768;2024-02-16T03:15:33;15.20;49.70
38265;DHT22;24062;47.480;8.768;2024-02-16T03:18:01;15.20;49.70
38265;DHT22;24062;47.480;8.768;2024-02-16T03:20:28;15.20;49.70
38265;DHT22;24062;47.480;8.768;2024-02-16T03:22:56;15.20;49.70
38265;DHT22;24062;47.480;8.768;2024-02-16T03:25:22;15.20;49.70
38265;DHT22;24062;47.480;8.768;2024-02-16T03:27:51;15.20;49.70
38265;DHT22;24062;47.480;8.768;2024-02-16T03:30:18;15.20;49.70
38265;DHT22;24062;47.480;8.768;2024-02-16T03:32:49;15.20;49.80
38265;DHT22;24062;47.480;8.768;2024-02-16T03:35:16;15.20;49.70
38265;DHT22;24062;47.480;8.768;2024-02-16T03:37:43;15.10;49.70
38265;DHT22;24062;47.480;8.768;2024-02-16T03:40:11;15.20;49.80
38265;DHT22;24062;47.480;8.768;2024-02-16T03:42:39;15.10;49.70
38265;DHT22;24062;47.480;8.768;2024-02-16T03:45:07;15.10;49.70
38265;DHT22;24062;47.480;8.768;2024-02-16T03:47:34;15.10;49.70
38265;DHT22;24062;47.480;8.768;2024-02-16T03:50:02;15.10;49.70
38265;DHT22;24062;47.480;8.768;2024-02-16T03:52:29;15.10;49.70
38265;DHT22;24062;47.480;8.768;2024-02-16T03:54:56;15.10;49.80
38265;DHT22;24062;47.480;8.768;2024-02-16T03:57:23;15.10;49.80
38265;DHT22;24062;47.480;8.768;2024-02-16T03:59:50;15.10;49.80
38265;DHT22;24062;47.480;8.768;2024-02-16T04:02:16;15.10;49.80
38265;DHT22;24062;47.480;8.768;2024-02-16T04:04:44;15.10;49.80
38265;DHT22;24062;47.480;8.768;2024-02-16T04:07:12;15.10;49.80
38265;DHT22;24062;47.480;8.768;2024-02-16T04:09:40;15.10;49.80
38265;DHT22;24062;47.480;8.768;2024-02-16T04:12:07;15.10;49.80
38265;DHT22;24062;47.480;8.768;2024-02-16T04:14:35;15.10;49.80
38265;DHT22;24062;47.480;8.768;2024-02-16T04:17:01;15.10;49.80
38265;DHT22;24062;47.480;8.768;2024-02-16T04:19:29;15.10;49.80
38265;DHT22;24062;47.480;8.768;2024-02-16T04:21:56;15.10;49.90
38265;DHT22;24062;47.480;8.768;2024-02-16T04:24:24;15.00;49.80
38265;DHT22;24062;47.480;8.768;2024-02-16T04:26:52;15.10;49.80
38265;DHT22;24062;47.480;8.768;2024-02-16T04:29:18;15.00;49.80
38265;DHT22;24062;47.480;8.768;2024-02-16T04:31:45;15.10;49.90
38265;DHT22;24062;47.480;8.768;2024-02-16T04:34:13;15.00;49.80
38265;DHT22;24062;47.480;8.768;2024-02-16T04:36:40;15.10;49.90
38265;DHT22;24062;47.480;8.768;2024-02-16T04:39:07;15.10;49.90
38265;DHT22;24062;47.480;8.768;2024-02-16T04:41:36;15.00;49.80
38265;DHT22;24062;47.480;8.768;2024-02-16T04:44:03;15.00;49.90
38265;DHT22;24062;47.480;8.768;2024-02-16T04:46:30;15.00;49.90
38265;DHT22;24062;47.480;8.768;2024-02-16T04:48:57;15.00;49.80
38265;DHT22;24062;47.480;8.768;2024-02-16T04:51:24;15.00;49.80
38265;DHT22;24062;47.480;8.768;2024-02-16T04:53:51;15.00;49.90
38265;DHT22;24062;47.480;8.768;2024-02-16T04:56:18;15.00;49.90
38265;DHT22;24062;47.480;8.768;2024-02-16T04:58:46;15.00;49.90
38265;DHT22;24062;47.480;8.768;2024-02-16T05:01:13;15.00;49.90
38265;DHT22;24062;47.480;8.768;2024-02-16T05:03:40;15.00;49.90
38265;DHT22;24062;47.480;8.768;2024-02-16T05:06:07;14.90;49.90
38265;DHT22;24062;47.480;8.768;2024-02-16T05:08:33;15.00;50.00
38265;DHT22;24062;47.480;8.768;2024-02-16T05:11:00;15.00;50.00
38265;DHT22;24062;47.480;8.768;2024-02-16T05:13:27;14.90;49.80
38265;DHT22;24062;47.480;8.768;2024-02-16T05:15:56;14.90;49.90
38265;DHT22;24062;47.480;8.768;2024-02-16T05:18:23;14.90;49.80
38265;DHT22;24062;47.480;8.768;2024-02-16T05:20:50;14.90;49.90
38265;DHT22;24062;47.480;8.768;2024-02-16T05:23:17;15.00;50.00
38265;DHT22;24062;47.480;8.768;2024-02-16T05:25:44;14.90;49.80
38265;DHT22;24062;47.480;8.768;2024-02-16T05:28:11;14.90;50.50
38265;DHT22;24062;47.480;8.768;2024-02-16T05:30:39;14.90;49.90
38265;DHT22;24062;47.480;8.768;2024-02-16T05:33:07;14.90;49.90
38265;DHT22;24062;47.480;8.768;2024-02-16T05:35:34;14.90;49.90
38265;DHT22;24062;47.480;8.768;2024-02-16T05:38:05;14.90;49.90
38265;DHT22;24062;47.480;8.768;2024-02-16T05:40:46;14.90;50.00
38265;DHT22;24062;47.480;8.768;2024-02-16T05:43:19;14.90;49.90
38265;DHT22;24062;47.480;8.768;2024-02-16T05:45:46;14.90;49.90
38265;DHT22;24062;47.480;8.768;2024-02-16T05:48:14;14.90;49.90
38265;DHT22;24062;47.480;8.768;2024-02-16T05:50:41;14.90;50.00
38265;DHT22;24062;47.480;8.768;2024-02-16T05:53:09;14.90;49.90
38265;DHT22;24062;47.480;8.768;2024-02-16T05:55:37;14.90;49.90
38265;DHT22;24062;47.480;8.768;2024-02-16T05:58:04;14.90;49.90
38265;DHT22;24062;47.480;8.768;2024-02-16T06:00:33;14.90;49.90
38265;DHT22;24062;47.480;8.768;2024-02-16T06:03:00;14.90;49.90
38265;DHT22;24062;47.480;8.768;2024-02-16T06:05:29;14.90;50.00
38265;DHT22;24062;47.480;8.768;2024-02-16T06:07:56;14.90;49.90
38265;DHT22;24062;47.480;8.768;2024-02-16T06:10:24;14.90;50.00
38265;DHT22;24062;47.480;8.768;2024-02-16T06:12:51;14.90;50.00
38265;DHT22;24062;47.480;8.768;2024-02-16T06:15:18;14.80;49.90
38265;DHT22;24062;47.480;8.768;2024-02-16T06:17:45;14.90;50.00
38265;DHT22;24062;47.480;8.768;2024-02-16T06:20:12;14.80;49.90
38265;DHT22;24062;47.480;8.768;2024-02-16T06:22:41;14.80;49.90
38265;DHT22;24062;47.480;8.768;2024-02-16T06:25:08;14.90;50.00
38265;DHT22;24062;47.480;8.768;2024-02-16T06:27:35;14.90;50.00
38265;DHT22;24062;47.480;8.768;2024-02-16T06:30:03;14.80;49.90
38265;DHT22;24062;47.480;8.768;2024-02-16T06:32:30;14.90;50.00
38265;DHT22;24062;47.480;8.768;2024-02-16T06:34:57;14.90;50.00
38265;DHT22;24062;47.480;8.768;2024-02-16T06:37:24;14.80;49.90
38265;DHT22;24062;47.480;8.768;2024-02-16T06:39:52;14.80;49.90
38265;DHT22;24062;47.480;8.768;2024-02-16T06:42:19;14.80;49.90
38265;DHT22;24062;47.480;8.768;2024-02-16T06:44:46;14.80;49.90
38265;DHT22;24062;47.480;8.768;2024-02-16T06:47:13;14.80;49.90
38265;DHT22;24062;47.480;8.768;2024-02-16T06:49:40;14.80;49.90
38265;DHT22;24062;47.480;8.768;2024-02-16T06:52:07;14.80;49.90
38265;DHT22;24062;47.480;8.768;2024-02-16T06:54:35;14.80;49.90
38265;DHT22;24062;47.480;8.768;2024-02-16T06:57:03;14.80;49.90
38265;DHT22;24062;47.480;8.768;2024-02-16T06:59:31;14.80;49.90
38265;DHT22;24062;47.480;8.768;2024-02-16T07:01:58;14.80;49.90
38265;DHT22;24062;47.480;8.768;2024-02-16T07:04:24;14.90;50.00
38265;DHT22;24062;47.480;8.768;2024-02-16T07:06:51;14.90;49.90
38265;DHT22;24062;47.480;8.768;2024-02-16T07:09:18;14.90;49.90
38265;DHT22;24062;47.480;8.768;2024-02-16T07:11:45;14.90;49.90
38265;DHT22;24062;47.480;8.768;2024-02-16T07:14:13;14.90;49.80
38265;DHT22;24062;47.480;8.768;2024-02-16T07:16:40;14.90;49.80
38265;DHT22;24062;47.480;8.768;2024-02-16T07:19:07;15.00;50.40
38265;DHT22;24062;47.480;8.768;2024-02-16T07:21:34;15.00;50.00
38265;DHT22;24062;47.480;8.768;2024-02-16T07:24:01;15.00;49.70
38265;DHT22;24062;47.480;8.768;2024-02-16T07:26:28;15.10;49.70
38265;DHT22;24062;47.480;8.768;2024-02-16T07:28:55;15.10;49.60
38265;DHT22;24062;47.480;8.768;2024-02-16T07:31:23;15.10;49.50
38265;DHT22;24062;47.480;8.768;2024-02-16T07:33:50;15.10;49.50
38265;DHT22;24062;47.480;8.768;2024-02-16T07:36:17;15.20;49.50
38265;DHT22;24062;47.480;8.768;2024-02-16T07:38:44;15.20;49.40
38265;DHT22;24062;47.480;8.768;2024-02-16T07:41:11;15.30;49.50
38265;DHT22;24062;47.480;8.768;2024-02-16T07:43:38;15.30;49.40
38265;DHT22;24062;47.480;8.768;2024-02-16T07:46:05;15.30;49.30
38265;DHT22;24062;47.480;8.768;2024-02-16T07:48:35;15.40;49.30
38265;DHT22;24062;47.480;8.768;2024-02-16T07:51:02;15.50;49.20
38265;DHT22;24062;47.480;8.768;2024-02-16T07:53:30;15.50;48.90
38265;DHT22;24062;47.480;8.768;2024-02-16T07:55:59;15.70;49.00
38265;DHT22;24062;47.480;8.768;2024-02-16T07:58:26;15.90;48.70
38265;DHT22;24062;47.480;8.768;2024-02-16T08:00:53;16.00;48.50
38265;DHT22;24062;47.480;8.768;2024-02-16T08:03:20;16.10;48.30
38265;DHT22;24062;47.480;8.768;2024-02-16T08:05:49;16.00;48.20
38265;DHT22;24062;47.480;8.768;2024-02-16T08:08:16;16.10;48.20
38265;DHT22;24062;47.480;8.768;2024-02-16T08:10:43;16.30;48.20
38265;DHT22;24062;47.480;8.768;2024-02-16T08:13:10;16.30;48.10
38265;DHT22;24062;47.480;8.768;2024-02-16T08:15:37;16.30;48.10
38265;DHT22;24062;47.480;8.768;2024-02-16T08:18:04;16.40;48.00
38265;DHT22;24062;47.480;8.768;2024-02-16T08:20:32;16.30;47.90
38265;DHT22;24062;47.480;8.768;2024-02-16T08:23:00;16.20;48.00
38265;DHT22;24062;47.480;8.768;2024-02-16T08:25:27;16.10;48.10
38265;DHT22;24062;47.480;8.768;2024-02-16T08:27:55;16.10;48.20
38265;DHT22;24062;47.480;8.768;2024-02-16T08:30:23;16.00;48.30
38265;DHT22;24062;47.480;8.768;2024-02-16T08:32:51;16.00;48.30
38265;DHT22;24062;47.480;8.768;2024-02-16T08:35:18;16.00;48.40
38265;DHT22;24062;47.480;8.768;2024-02-16T08:37:45;16.00;48.30
38265;DHT22;24062;47.480;8.768;2024-02-16T08:40:14;16.20;48.30
38265;DHT22;24062;47.480;8.768;2024-02-16T08:42:41;16.30;48.10
38265;DHT22;24062;47.480;8.768;2024-02-16T08:45:08;16.50;47.90
38265;DHT22;24062;47.480;8.768;2024-02-16T08:47:36;16.70;47.60
38265;DHT22;24062;47.480;8.768;2024-02-16T08:50:05;17.20;47.30
38265;DHT22;24062;47.480;8.768;2024-02-16T08:52:32;17.60;46.70
38265;DHT22;24062;47.480;8.768;2024-02-16T08:54:59;17.80;46.20
38265;DHT22;24062;47.480;8.768;2024-02-16T08:57:27;17.90;45.80
38265;DHT22;24062;47.480;8.768;2024-02-16T08:59:54;17.90;45.70
38265;DHT22;24062;47.480;8.768;2024-02-16T09:02:22;17.80;45.80
38265;DHT22;24062;47.480;8.768;2024-02-16T09:04:48;18.10;45.90
38265;DHT22;24062;47.480;8.768;2024-02-16T09:07:15;18.10;45.30
38265;DHT22;24062;47.480;8.768;2024-02-16T09:09:42;18.30;45.40
38265;DHT22;24062;47.480;8.768;2024-02-16T09:12:09;18.50;45.20
38265;DHT22;24062;47.480;8.768;2024-02-16T09:14:38;18.80;45.00
38265;DHT22;24062;47.480;8.768;2024-02-16T09:17:05;19.10;44.50
38265;DHT22;24062;47.480;8.768;2024-02-16T09:19:31;19.30;44.30
38265;DHT22;24062;47.480;8.768;2024-02-16T09:22:00;19.30;44.30
38265;DHT22;24062;47.480;8.768;2024-02-16T09:24:28;19.30;44.20
38265;DHT22;24062;47.480;8.768;2024-02-16T09:26:56;19.40;44.10
38265;DHT22;24062;47.480;8.768;2024-02-16T09:29:22;19.70;43.80
38265;DHT22;24062;47.480;8.768;2024-02-16T09:31:51;19.50;43.70
38265;DHT22;24062;47.480;8.768;2024-02-16T09:34:18;19.30;43.90
38265;DHT22;24062;47.480;8.768;2024-02-16T09:36:45;19.40;43.80
38265;DHT22;24062;47.480;8.768;2024-02-16T09:39:12;19.60;44.00
38265;DHT22;24062;47.480;8.768;2024-02-16T09:41:42;20.50;43.40
38265;DHT22;24062;47.480;8.768;2024-02-16T09:44:09;21.30;42.60
38265;DHT22;24062;47.480;8.768;2024-02-16T09:46:36;22.20;41.60
38265;DHT22;24062;47.480;8.768;2024-02-16T09:49:05;21.90;40.50
38265;DHT22;24062;47.480;8.768;2024-02-16T09:51:36;21.10;41.40
38265;DHT22;24062;47.480;8.768;2024-02-16T09:54:03;21.10;41.90
38265;DHT22;24062;47.480;8.768;2024-02-16T09:56:30;21.50;41.50
38265;DHT22;24062;47.480;8.768;2024-02-16T09:58:58;21.50;41.40
38265;DHT22;24062;47.480;8.768;2024-02-16T10:01:26;21.50;41.50
38265;DHT22;24062;47.480;8.768;2024-02-16T10:03:54;21.90;41.40
38265;DHT22;24062;47.480;8.768;2024-02-16T10:06:22;22.30;40.90
38265;DHT22;24062;47.480;8.768;2024-02-16T10:08:50;22.00;40.30
38265;DHT22;24062;47.480;8.768;2024-02-16T10:11:17;21.90;40.80
38265;DHT22;24062;47.480;8.768;2024-02-16T10:13:54;21.30;40.70
38265;DHT22;24062;47.480;8.768;2024-02-16T10:16:22;20.30;41.50
38265;DHT22;24062;47.480;8.768;2024-02-16T10:18:49;19.60;42.50
38265;DHT22;24062;47.480;8.768;2024-02-16T10:21:25;19.00;43.30
38265;DHT22;24062;47.480;8.768;2024-02-16T10:24:00;18.50;43.90
38265;DHT22;24062;47.480;8.768;2024-02-16T10:26:28;18.20;44.50
38265;DHT22;24062;47.480;8.768;2024-02-16T10:28:56;18.00;45.00
38265;DHT22;24062;47.480;8.768;2024-02-16T10:31:24;17.80;45.40
38265;DHT22;24062;47.480;8.768;2024-02-16T10:33:57;17.70;45.60
38265;DHT22;24062;47.480;8.768;2024-02-16T10:36:26;17.80;45.90
38265;DHT22;24062;47.480;8.768;2024-02-16T10:38:54;17.70;45.80
38265;DHT22;24062;47.480;8.768;2024-02-16T10:41:25;17.80;45.90
38265;DHT22;24062;47.480;8.768;2024-02-16T10:43:54;17.80;46.00
38265;DHT22;24062;47.480;8.768;2024-02-16T10:46:22;17.80;46.00
38265;DHT22;24062;47.480;8.768;2024-02-16T10:48:49;17.80;45.90
38265;DHT22;24062;47.480;8.768;2024-02-16T10:51:18;17.90;46.00
38265;DHT22;24062;47.480;8.768;2024-02-16T10:53:48;17.80;46.00
38265;DHT22;24062;47.480;8.768;2024-02-16T10:56:27;17.90;46.10
38265;DHT22;24062;47.480;8.768;2024-02-16T10:58:54;17.90;46.00
38265;DHT22;24062;47.480;8.768;2024-02-16T11:01:22;18.00;46.00
38265;DHT22;24062;47.480;8.768;2024-02-16T11:03:49;18.00;46.00
38265;DHT22;24062;47.480;8.768;2024-02-16T11:06:26;18.00;46.00
38265;DHT22;24062;47.480;8.768;2024-02-16T11:09:00;18.00;46.10
38265;DHT22;24062;47.480;8.768;2024-02-16T11:11:27;18.00;46.10
38265;DHT22;24062;47.480;8.768;2024-02-16T11:13:55;18.00;46.10
38265;DHT22;24062;47.480;8.768;2024-02-16T11:16:22;18.10;46.10
38265;DHT22;24062;47.480;8.768;2024-02-16T11:18:51;18.10;46.10
38265;DHT22;24062;47.480;8.768;2024-02-16T11:21:18;18.00;46.00
38265;DHT22;24062;47.480;8.768;2024-02-16T11:23:44;18.00;46.10
38265;DHT22;24062;47.480;8.768;2024-02-16T11:26:13;17.90;46.60
38265;DHT22;24062;47.480;8.768;2024-02-16T11:28:41;17.90;46.40
38265;DHT22;24062;47.480;8.768;2024-02-16T11:31:08;17.80;46.40
38265;DHT22;24062;47.480;8.768;2024-02-16T11:33:35;17.80;46.50
38265;DHT22;24062;47.480;8.768;2024-02-16T11:36:04;17.80;46.50
38265;DHT22;24062;47.480;8.768;2024-02-16T11:38:31;17.80;46.60
38265;DHT22;24062;47.480;8.768;2024-02-16T11:41:00;17.80;46.60
38265;DHT22;24062;47.480;8.768;2024-02-16T11:43:29;17.70;46.60
38265;DHT22;24062;47.480;8.768;2024-02-16T11:45:57;17.70;46.60
38265;DHT22;24062;47.480;8.768;2024-02-16T11:48:25;17.70;46.70
38265;DHT22;24062;47.480;8.768;2024-02-16T11:51:00;17.70;46.70
38265;DHT22;24062;47.480;8.768;2024-02-16T11:53:28;17.70;46.70
38265;DHT22;24062;47.480;8.768;2024-02-16T11:55:55;17.70;46.70
38265;DHT22;24062;47.480;8.768;2024-02-16T11:58:23;17.70;46.80
38265;DHT22;24062;47.480;8.768;2024-02-16T12:00:52;17.70;46.80
38265;DHT22;24062;47.480;8.768;2024-02-16T12:03:19;17.70;46.90
38265;DHT22;24062;47.480;8.768;2024-02-16T12:05:51;17.70;46.90
38265;DHT22;24062;47.480;8.768;2024-02-16T12:08:18;17.80;46.90
38265;DHT22;24062;47.480;8.768;2024-02-16T12:10:46;17.90;46.90
38265;DHT22;24062;47.480;8.768;2024-02-16T12:13:13;17.90;46.80
38265;DHT22;24062;47.480;8.768;2024-02-16T12:15:41;18.00;46.80
38265;DHT22;24062;47.480;8.768;2024-02-16T12:18:09;18.00;46.70
38265;DHT22;24062;47.480;8.768;2024-02-16T12:20:36;18.10;46.70
38265;DHT22;24062;47.480;8.768;2024-02-16T12:23:11;18.00;46.60
38265;DHT22;24062;47.480;8.768;2024-02-16T12:25:38;18.10;46.60
38265;DHT22;24062;47.480;8.768;2024-02-16T12:28:05;18.10;46.60
38265;DHT22;24062;47.480;8.768;2024-02-16T12:30:33;18.20;46.60
38265;DHT22;24062;47.480;8.768;2024-02-16T12:33:00;18.20;46.50
38265;DHT22;24062;47.480;8.768;2024-02-16T12:35:29;18.20;46.50
38265;DHT22;24062;47.480;8.768;2024-02-16T12:37:56;18.20;46.50
38265;DHT22;24062;47.480;8.768;2024-02-16T12:40:23;18.20;46.50
38265;DHT22;24062;47.480;8.768;2024-02-16T12:42:50;18.20;46.60
38265;DHT22;24062;47.480;8.768;2024-02-16T12:45:16;18.10;46.60
38265;DHT22;24062;47.480;8.768;2024-02-16T12:47:43;18.10;46.70
38265;DHT22;24062;47.480;8.768;2024-02-16T12:50:11;18.00;46.60
38265;DHT22;24062;47.480;8.768;2024-02-16T12:52:39;18.00;46.70
38265;DHT22;24062;47.480;8.768;2024-02-16T12:55:07;18.00;46.80
38265;DHT22;24062;47.480;8.768;2024-02-16T12:57:35;18.00;46.80
38265;DHT22;24062;47.480;8.768;2024-02-16T13:00:02;17.90;46.80
38265;DHT22;24062;47.480;8.768;2024-02-16T13:02:29;17.90;46.80
38265;DHT22;24062;47.480;8.768;2024-02-16T13:04:56;17.90;46.80
38265;DHT22;24062;47.480;8.768;2024-02-16T13:07:23;17.90;46.90
38265;DHT22;24062;47.480;8.768;2024-02-16T13:09:52;17.90;46.90
38265;DHT22;24062;47.480;8.768;2024-02-16T13:12:20;18.00;46.90
38265;DHT22;24062;47.480;8.768;2024-02-16T13:14:49;18.00;47.00
38265;DHT22;24062;47.480;8.768;2024-02-16T13:17:16;18.00;46.90
38265;DHT22;24062;47.480;8.768;2024-02-16T13:19:43;17.90;46.80
38265;DHT22;24062;47.480;8.768;2024-02-16T13:22:10;17.90;46.80
38265;DHT22;24062;47.480;8.768;2024-02-16T13:24:37;18.00;47.00
38265;DHT22;24062;47.480;8.768;2024-02-16T13:27:06;17.90;46.90
38265;DHT22;24062;47.480;8.768;2024-02-16T13:29:33;17.90;46.90
38265;DHT22;24062;47.480;8.768;2024-02-16T13:32:00;17.90;47.00
38265;DHT22;24062;47.480;8.768;2024-02-16T13:34:27;17.90;47.00
38265;DHT22;24062;47.480;8.768;2024-02-16T13:36:53;17.80;47.00
38265;DHT22;24062;47.480;8.768;2024-02-16T13:39:20;17.90;47.10
38265;DHT22;24062;47.480;8.768;2024-02-16T13:41:48;17.90;47.10
38265;DHT22;24062;47.480;8.768;2024-02-16T13:44:17;17.80;47.10
38265;DHT22;24062;47.480;8.768;2024-02-16T13:46:46;17.80;47.10
38265;DHT22;24062;47.480;8.768;2024-02-16T13:49:13;17.80;47.10
38265;DHT22;24062;47.480;8.768;2024-02-16T13:51:41;17.80;47.10
38265;DHT22;24062;47.480;8.768;2024-02-16T13:54:08;17.80;47.10
38265;DHT22;24062;47.480;8.768;2024-02-16T13:56:35;17.90;47.20
38265;DHT22;24062;47.480;8.768;2024-02-16T13:59:04;17.90;47.30
38265;DHT22;24062;47.480;8.768;2024-02-16T14:01:33;17.90;47.30
38265;DHT22;24062;47.480;8.768;2024-02-16T14:04:01;17.80;47.20
38265;DHT22;24062;47.480;8.768;2024-02-16T14:06:28;17.80;47.20
38265;DHT22;24062;47.480;8.768;2024-02-16T14:08:56;17.90;47.40
38265;DHT22;24062;47.480;8.768;2024-02-16T14:11:23;17.70;47.20
38265;DHT22;24062;47.480;8.768;2024-02-16T14:13:50;17.70;47.30
38265;DHT22;24062;47.480;8.768;2024-02-16T14:16:17;17.70;47.40
38265;DHT22;24062;47.480;8.768;2024-02-16T14:18:46;17.70;47.40
38265;DHT22;24062;47.480;8.768;2024-02-16T14:21:13;17.70;47.50
38265;DHT22;24062;47.480;8.768;2024-02-16T14:23:40;17.70;48.10
38265;DHT22;24062;47.480;8.768;2024-02-16T14:26:09;17.60;47.50
38265;DHT22;24062;47.480;8.768;2024-02-16T14:28:36;17.60;47.50
38265;DHT22;24062;47.480;8.768;2024-02-16T14:31:04;17.60;47.60
38265;DHT22;24062;47.480;8.768;2024-02-16T14:33:32;17.60;47.60
38265;DHT22;24062;47.480;8.768;2024-02-16T14:36:01;17.70;47.70
38265;DHT22;24062;47.480;8.768;2024-02-16T14:38:28;17.60;47.60
38265;DHT22;24062;47.480;8.768;2024-02-16T14:40:55;17.60;47.70
38265;DHT22;24062;47.480;8.768;2024-02-16T14:43:22;17.60;47.70
38265;DHT22;24062;47.480;8.768;2024-02-16T14:45:49;17.60;47.70
38265;DHT22;24062;47.480;8.768;2024-02-16T14:48:16;17.50;47.60
38265;DHT22;24062;47.480;8.768;2024-02-16T14:50:43;17.50;47.70
38265;DHT22;24062;47.480;8.768;2024-02-16T14:53:11;17.50;47.70
38265;DHT22;24062;47.480;8.768;2024-02-16T14:55:38;17.50;47.70
38265;DHT22;24062;47.480;8.768;2024-02-16T14:58:04;17.50;47.80
38265;DHT22;24062;47.480;8.768;2024-02-16T15:00:32;17.50;47.70
38265;DHT22;24062;47.480;8.768;2024-02-16T15:03:01;17.50;47.80
38265;DHT22;24062;47.480;8.768;2024-02-16T15:05:28;17.50;47.80
38265;DHT22;24062;47.480;8.768;2024-02-16T15:07:55;17.40;47.80
38265;DHT22;24062;47.480;8.768;2024-02-16T15:10:23;17.40;47.80
38265;DHT22;24062;47.480;8.768;2024-02-16T15:12:50;17.50;47.90
38265;DHT22;24062;47.480;8.768;2024-02-16T15:15:17;17.40;47.80
38265;DHT22;24062;47.480;8.768;2024-02-16T15:17:44;17.50;48.00
38265;DHT22;24062;47.480;8.768;2024-02-16T15:20:11;17.40;47.90
38265;DHT22;24062;47.480;8.768;2024-02-16T15:22:38;17.40;47.90
38265;DHT22;24062;47.480;8.768;2024-02-16T15:25:06;17.40;47.90
38265;DHT22;24062;47.480;8.768;2024-02-16T15:27:36;17.40;47.90
38265;DHT22;24062;47.480;8.768;2024-02-16T15:30:04;17.40;47.90
38265;DHT22;24062;47.480;8.768;2024-02-16T15:32:31;17.40;47.90